Time;durP1;ratioP1;P1;durP2;ratioP2;P2;SDS_P1;SDS_P2;PMS_P1;PMS_P2;Temp;Humidity;BMP_temperature;BMP_pressure;BME280_temperature;BME280_humidity;BME280_pressure;Samples;Min_cycle;Max_cycle;Signal;HPM_P1;HPM_P2
2022/03/02 00:00:14;;;;;;;0.50;0.10;;;4.90;99.90;;;;;;4945631;29;20455;-72
2022/03/02 00:02:43;;;;;;;0.50;0.10;;;4.90;99.90;;;;;;4917473;29;20481;-71
2022/03/02 00:05:11;;;;;;;0.50;0.10;;;4.90;99.90;;;;;;4917746;29;20537;-73
2022/03/02 00:07:41;;;;;;;0.50;0.10;;;5.10;99.90;;;;;;4917358;29;20893;-72
2022/03/02 00:10:09;;;;;;;0.50;0.10;;;5.10;99.90;;;;;;4921479;29;20449;-72
2022/03/02 00:12:37;;;;;;;0.60;0.43;;;5.10;99.90;;;;;;4936169;29;20739;-71
2022/03/02 00:15:05;;;;;;;0.70;0.60;;;5.10;99.90;;;;;;4936056;29;20497;-71
2022/03/02 00:17:33;;;;;;;0.83;0.83;;;5.00;99.90;;;;;;4936240;29;20452;-73
2022/03/02 00:20:01;;;;;;;0.50;0.10;;;5.00;99.90;;;;;;4932667;29;20460;-71
2022/03/02 00:22:29;;;;;;;0.50;0.10;;;5.00;99.90;;;;;;4917278;29;20480;-71
2022/03/02 00:24:58;;;;;;;0.50;0.10;;;4.90;99.90;;;;;;4917526;29;20835;-72
2022/03/02 00:27:26;;;;;;;0.50;0.10;;;4.90;99.90;;;;;;4923958;29;20460;-72
2022/03/02 00:29:54;;;;;;;0.93;0.83;;;4.80;99.90;;;;;;4924147;29;20449;-73
2022/03/02 00:32:22;;;;;;;0.53;0.27;;;4.80;99.90;;;;;;4939116;29;20900;-72
2022/03/02 00:34:50;;;;;;;0.50;0.10;;;4.60;99.90;;;;;;4938481;29;20496;-73
2022/03/02 00:37:18;;;;;;;0.50;0.20;;;4.50;99.90;;;;;;4938925;29;20451;-72
2022/03/02 00:39:47;;;;;;;0.50;0.10;;;4.40;99.90;;;;;;4935826;29;20452;-72
2022/03/02 00:42:16;;;;;;;2.87;2.67;;;4.40;99.90;;;;;;4931371;29;20478;-73
2022/03/02 00:44:44;;;;;;;0.50;0.10;;;4.50;99.90;;;;;;4918453;29;20449;-73
2022/03/02 00:47:12;;;;;;;0.50;0.10;;;4.50;99.90;;;;;;4916729;29;21153;-72
2022/03/02 00:49:41;;;;;;;0.50;0.10;;;4.40;99.90;;;;;;4916292;29;20445;-72
2022/03/02 00:52:11;;;;;;;0.60;0.40;;;4.40;99.90;;;;;;4919324;29;20497;-70
2022/03/02 00:54:38;;;;;;;1.00;0.73;;;4.40;99.90;;;;;;4940487;29;20525;-70
2022/03/02 00:57:06;;;;;;;0.50;0.10;;;4.20;99.90;;;;;;4946408;29;20543;-73
2022/03/02 00:59:36;;;;;;;0.60;0.50;;;4.20;99.90;;;;;;4952993;29;21002;-74
2022/03/02 01:02:04;;;;;;;0.50;0.10;;;4.20;99.90;;;;;;4949164;29;20483;-73
2022/03/02 01:04:32;;;;;;;0.50;0.10;;;4.10;99.90;;;;;;4915745;29;20447;-70
2022/03/02 01:07:00;;;;;;;0.50;0.10;;;;;;;;;;4915760;29;20465;-73
2022/03/02 01:09:28;;;;;;;0.50;0.10;;;4.10;99.90;;;;;;4916091;29;20463;-72
2022/03/02 01:11:57;;;;;;;0.50;0.10;;;4.10;99.90;;;;;;4916457;29;20476;-72
2022/03/02 01:14:28;;;;;;;0.50;0.10;;;4.10;99.90;;;;;;4934569;29;21040;-73
2022/03/02 01:16:57;;;;;;;0.50;0.10;;;4.10;99.90;;;;;;4935143;29;20459;-72
2022/03/02 01:19:25;;;;;;;0.50;0.10;;;4.10;99.90;;;;;;4934518;29;20951;-72
2022/03/02 01:21:53;;;;;;;0.50;0.10;;;4.10;99.90;;;;;;4934128;29;20478;-72
2022/03/02 01:24:21;;;;;;;0.50;0.10;;;4.10;99.90;;;;;;4934329;29;20453;-73
2022/03/02 01:26:49;;;;;;;0.50;0.10;;;4.10;99.90;;;;;;4934598;29;20477;-70
2022/03/02 01:29:19;;;;;;;0.50;0.10;;;4.10;99.90;;;;;;4931216;29;20554;-72
2022/03/02 01:31:47;;;;;;;0.50;0.10;;;4.20;99.90;;;;;;4930582;29;20486;-73
2022/03/02 01:34:16;;;;;;;6.67;6.40;;;4.30;99.90;;;;;;4911127;29;21056;-72
2022/03/02 01:36:44;;;;;;;0.50;0.10;;;4.30;99.90;;;;;;4912539;29;20445;-70
2022/03/02 01:39:12;;;;;;;0.60;0.50;;;4.30;99.90;;;;;;4912330;29;20459;-73
2022/03/02 01:41:41;;;;;;;0.50;0.10;;;4.20;99.90;;;;;;4914449;29;21022;-72
2022/03/02 01:44:09;;;;;;;0.50;0.10;;;4.20;99.90;;;;;;4930206;29;20451;-75
2022/03/02 01:46:37;;;;;;;0.60;0.10;;;4.10;99.90;;;;;;4932368;29;20463;-72
2022/03/02 01:49:05;;;;;;;0.50;0.10;;;4.00;99.90;;;;;;4932395;29;20454;-71
2022/03/02 01:51:35;;;;;;;0.50;0.10;;;3.90;99.90;;;;;;4932317;29;20994;-73
2022/03/02 01:54:03;;;;;;;0.50;0.10;;;3.90;99.90;;;;;;4918940;29;20471;-72
2022/03/02 01:56:31;;;;;;;0.50;0.10;;;4.00;99.90;;;;;;4914125;29;20570;-71
2022/03/02 01:58:59;;;;;;;0.50;0.10;;;4.00;99.90;;;;;;4932504;29;20536;-71
2022/03/02 02:01:27;;;;;;;0.50;0.10;;;4.00;99.90;;;;;;4932482;29;20490;-72
2022/03/02 02:03:56;;;;;;;0.50;0.10;;;4.00;99.90;;;;;;4932205;29;20482;-73
2022/03/02 02:17:48;;;;;;;0.50;0.10;;;3.80;99.90;;;;;;4916848;29;20546;-70
2022/03/02 02:20:16;;;;;;;0.50;0.10;;;3.80;99.90;;;;;;4915547;29;20453;-72
2022/03/02 02:22:47;;;;;;;0.50;0.10;;;3.80;99.90;;;;;;4915734;29;20501;-72
2022/03/02 02:25:15;;;;;;;0.50;0.10;;;3.80;99.90;;;;;;4915580;29;20454;-71
2022/03/02 02:27:48;;;;;;;0.50;0.10;;;3.80;99.90;;;;;;4923151;29;20508;-73
2022/03/02 02:30:17;;;;;;;0.50;0.10;;;4.90;99.90;;;;;;4931442;29;20442;-74
2022/03/02 02:32:45;;;;;;;0.50;0.10;;;3.90;99.90;;;;;;4931589;29;20831;-73
2022/03/02 02:35:13;;;;;;;0.50;0.10;;;4.00;99.90;;;;;;4931203;29;20992;-73
2022/03/02 02:37:41;;;;;;;0.50;0.10;;;4.10;99.90;;;;;;4931580;29;20456;-71
2022/03/02 02:40:12;;;;;;;0.50;0.10;;;4.10;99.90;;;;;;4932349;29;20539;-72
2022/03/02 02:42:44;;;;;;;0.50;0.10;;;4.20;99.90;;;;;;4932726;29;20482;-71
2022/03/02 02:45:15;;;;;;;0.50;0.10;;;4.20;99.90;;;;;;4932999;29;21036;-70
2022/03/02 02:47:43;;;;;;;0.50;0.20;;;4.20;99.90;;;;;;4925599;29;20460;-72
2022/03/02 02:50:16;;;;;;;0.77;0.77;;;4.10;99.90;;;;;;4915908;29;20526;-72
2022/03/02 02:52:44;;;;;;;0.50;0.10;;;4.10;99.90;;;;;;4914980;29;20476;-75
2022/03/02 02:55:15;;;;;;;0.50;0.10;;;3.90;99.90;;;;;;4942065;29;20892;-72
2022/03/02 02:57:44;;;;;;;0.50;0.10;;;3.80;99.90;;;;;;4939461;29;20455;-72
2022/03/02 03:00:15;;;;;;;0.50;0.10;;;3.70;99.90;;;;;;4930886;29;20453;-72
2022/03/02 03:02:45;;;;;;;0.60;0.23;;;3.80;99.90;;;;;;4931809;29;20858;-71
2022/03/02 03:05:15;;;;;;;1.47;1.07;;;3.80;99.90;;;;;;4931358;29;20501;-73
2022/03/02 03:07:43;;;;;;;0.50;0.10;;;3.70;99.90;;;;;;4923679;29;20533;-72
2022/03/02 03:10:14;;;;;;;0.50;0.10;;;3.70;99.90;;;;;;4912207;29;21015;-71
2022/03/02 03:12:43;;;;;;;0.50;0.10;;;3.70;99.90;;;;;;4912803;29;20852;-69
2022/03/02 03:15:13;;;;;;;0.50;0.10;;;3.70;99.90;;;;;;4912028;29;20493;-72
2022/03/02 03:17:41;;;;;;;0.50;0.10;;;3.80;99.90;;;;;;4919323;29;20951;-72
2022/03/02 03:20:12;;;;;;;0.50;0.10;;;3.90;99.90;;;;;;4931605;29;20457;-72
2022/03/02 03:22:40;;;;;;;1.40;1.20;;;3.90;99.90;;;;;;4931723;29;20477;-72
2022/03/02 03:25:09;;;;;;;0.50;0.10;;;3.80;99.90;;;;;;4930980;29;20454;-73
2022/03/02 03:27:39;;;;;;;0.50;0.10;;;3.70;99.90;;;;;;4929468;29;20986;-72
2022/03/02 03:30:10;;;;;;;0.50;0.20;;;3.70;99.90;;;;;;4917415;29;20470;-73
2022/03/02 03:32:39;;;;;;;0.50;0.10;;;3.70;99.90;;;;;;4918257;29;20560;-71
2022/03/02 03:35:09;;;;;;;0.50;0.10;;;3.60;99.90;;;;;;4918384;29;20494;-73
2022/03/02 03:37:37;;;;;;;0.50;0.10;;;3.50;99.90;;;;;;4920101;29;20456;-72
2022/03/02 03:40:07;;;;;;;0.50;0.10;;;3.10;99.90;;;;;;4918995;29;20477;-72
2022/03/02 03:42:35;;;;;;;0.50;0.10;;;;;;;;;;4920092;29;20517;-72
2022/03/02 03:45:05;;;;;;;0.50;0.10;;;3.60;99.90;;;;;;4920146;29;20455;-72
2022/03/02 03:47:34;;;;;;;0.50;0.10;;;3.60;99.90;;;;;;4925358;29;20473;-73
2022/03/02 03:50:02;;;;;;;0.50;0.10;;;3.60;99.90;;;;;;4936983;29;20450;-72
2022/03/02 03:52:30;;;;;;;0.50;0.10;;;3.60;99.90;;;;;;4936266;29;20942;-73
2022/03/02 03:54:58;;;;;;;0.50;0.10;;;3.60;99.90;;;;;;4936580;29;20819;-70
2022/03/02 03:57:26;;;;;;;0.50;0.10;;;3.60;99.90;;;;;;4929970;29;20468;-73
2022/03/02 03:59:54;;;;;;;0.50;0.10;;;3.50;99.90;;;;;;4917099;29;20448;-72
2022/03/02 04:02:23;;;;;;;0.50;0.10;;;3.50;99.90;;;;;;4917235;29;20545;-72
2022/03/02 04:04:51;;;;;;;0.50;0.10;;;3.50;99.90;;;;;;4917583;29;20504;-71
2022/03/02 04:07:19;;;;;;;0.50;0.10;;;3.50;99.90;;;;;;4924963;29;20465;-72
2022/03/02 04:09:47;;;;;;;0.50;0.10;;;3.50;99.90;;;;;;4931855;29;20978;-72
2022/03/02 04:12:15;;;;;;;0.50;0.10;;;3.50;99.90;;;;;;4941162;29;20477;-72
2022/03/02 04:14:43;;;;;;;0.50;0.10;;;;;;;;;;4939046;29;20462;-72
2022/03/02 04:17:11;;;;;;;0.50;0.10;;;3.50;99.90;;;;;;4937383;29;20485;-72
2022/03/02 04:19:41;;;;;;;0.50;0.10;;;3.50;99.90;;;;;;4936421;29;20486;-73
2022/03/02 04:22:09;;;;;;;0.50;0.10;;;3.60;99.90;;;;;;4924503;29;20476;-71
2022/03/02 04:24:37;;;;;;;0.50;0.10;;;3.70;99.90;;;;;;4917097;29;20549;-72
2022/03/02 04:27:05;;;;;;;0.50;0.10;;;3.70;99.90;;;;;;4918224;29;20455;-73
2022/03/02 04:29:33;;;;;;;0.50;0.10;;;3.70;99.90;;;;;;4917741;29;20767;-72
2022/03/02 04:32:01;;;;;;;0.50;0.10;;;3.60;99.90;;;;;;4926590;29;20482;-71
2022/03/02 04:34:29;;;;;;;0.50;0.10;;;3.60;99.90;;;;;;4935588;29;20567;-71
2022/03/02 04:36:58;;;;;;;0.50;0.10;;;3.50;99.90;;;;;;4935453;29;20489;-72
2022/03/02 04:39:26;;;;;;;0.50;0.10;;;3.50;99.90;;;;;;4932595;29;20466;-73
2022/03/02 04:41:54;;;;;;;0.50;0.10;;;3.50;99.90;;;;;;4942553;29;20576;-73
2022/03/02 04:44:22;;;;;;;0.50;0.20;;;3.40;99.90;;;;;;4954618;29;20458;-72
2022/03/02 04:46:51;;;;;;;0.50;0.10;;;3.30;99.90;;;;;;4954556;29;20450;-72
2022/03/02 04:49:20;;;;;;;0.50;0.20;;;3.30;99.90;;;;;;4949562;29;20819;-73
2022/03/02 04:51:49;;;;;;;0.50;0.10;;;3.30;99.90;;;;;;4937786;29;20503;-71
2022/03/02 04:57:05;;;;;;;3.93;3.73;;;3.30;99.90;;;;;;4937281;29;20504;-73
2022/03/02 04:59:34;;;;;;;0.50;0.20;;;3.30;99.90;;;;;;4946470;29;20822;-72
2022/03/02 05:02:02;;;;;;;0.50;0.10;;;3.30;99.90;;;;;;4967300;23;20510;-74
2022/03/02 05:04:30;;;;;;;0.50;0.10;;;3.40;99.90;;;;;;4948913;29;20531;-73
2022/03/02 05:06:58;;;;;;;0.50;0.10;;;3.40;99.90;;;;;;4946459;29;20449;-73
2022/03/02 05:09:27;;;;;;;0.50;0.10;;;3.40;99.90;;;;;;4944545;29;20818;-73
2022/03/02 05:11:55;;;;;;;0.60;0.47;;;3.50;99.90;;;;;;4942773;29;20472;-73
2022/03/02 05:14:23;;;;;;;0.50;0.10;;;3.50;99.90;;;;;;4951582;29;20451;-74
2022/03/02 05:16:51;;;;;;;0.50;0.10;;;3.50;99.90;;;;;;4950671;29;20483;-74
2022/03/02 05:19:19;;;;;;;0.60;0.40;;;3.50;99.90;;;;;;4944258;29;20521;-73
2022/03/02 05:21:47;;;;;;;0.50;0.10;;;3.50;99.90;;;;;;4934702;29;20994;-74
2022/03/02 05:24:15;;;;;;;1.23;0.93;;;3.50;99.90;;;;;;4936894;29;20457;-74
2022/03/02 05:26:44;;;;;;;0.60;0.30;;;3.50;99.90;;;;;;4941664;29;20442;-73
2022/03/02 05:29:12;;;;;;;0.50;0.10;;;3.40;99.90;;;;;;4941241;29;20537;-73
2022/03/02 05:31:40;;;;;;;0.50;0.10;;;3.40;99.90;;;;;;4946556;29;20484;-73
2022/03/02 05:34:08;;;;;;;0.50;0.10;;;3.40;99.90;;;;;;4947517;29;20458;-71
2022/03/02 05:36:36;;;;;;;0.50;0.10;;;3.40;99.90;;;;;;4942554;29;20497;-73
2022/03/02 05:39:04;;;;;;;0.60;0.20;;;3.40;99.90;;;;;;4945448;29;20459;-73
2022/03/02 05:41:33;;;;;;;0.50;0.10;;;3.40;99.90;;;;;;4940880;29;20831;-73
2022/03/02 05:44:03;;;;;;;0.50;0.10;;;3.40;99.90;;;;;;4954753;29;20454;-73
2022/03/02 05:46:31;;;;;;;0.50;0.10;;;3.40;99.90;;;;;;4957926;29;20961;-73
2022/03/02 05:48:59;;;;;;;0.50;0.10;;;3.50;99.90;;;;;;4957464;29;20456;-72
2022/03/02 05:51:28;;;;;;;0.50;0.10;;;3.60;99.90;;;;;;4944637;29;20462;-72
2022/03/02 05:53:56;;;;;;;0.50;0.10;;;3.70;99.90;;;;;;4940100;29;20470;-73
2022/03/02 05:56:27;;;;;;;0.50;0.10;;;3.80;99.90;;;;;;4949061;29;20485;-74
2022/03/02 05:58:55;;;;;;;0.50;0.10;;;3.80;99.90;;;;;;4937229;29;20809;-73
2022/03/02 06:01:24;;;;;;;0.50;0.10;;;3.80;99.90;;;;;;4941772;29;20506;-73
2022/03/02 06:03:53;;;;;;;0.50;0.20;;;3.80;99.90;;;;;;4936492;29;20460;-73
2022/03/02 06:06:40;;;;;;;0.60;0.40;;;3.80;99.90;;;;;;4944521;29;20464;-73
2022/03/02 06:09:09;;;;;;;0.50;0.10;;;3.80;99.90;;;;;;4928808;29;21009;-74
2022/03/02 06:11:38;;;;;;;2.20;1.47;;;3.70;99.90;;;;;;4927237;29;20474;-73
2022/03/02 06:14:07;;;;;;;0.60;0.30;;;3.70;99.90;;;;;;4923908;29;20459;-73
2022/03/02 06:16:43;;;;;;;0.50;0.10;;;3.70;99.90;;;;;;4916505;29;20525;-73
2022/03/02 06:19:12;;;;;;;0.50;0.10;;;3.70;99.90;;;;;;4930649;29;20502;-73
2022/03/02 06:21:43;;;;;;;0.50;0.10;;;3.60;99.90;;;;;;4917895;29;20476;-74
2022/03/02 06:24:14;;;;;;;0.50;0.10;;;3.70;99.90;;;;;;4924864;29;20484;-74
2022/03/02 06:26:43;;;;;;;0.50;0.10;;;3.60;99.90;;;;;;4949416;29;20447;-73
2022/03/02 06:29:11;;;;;;;0.50;0.10;;;3.70;99.90;;;;;;4936233;29;20544;-74
2022/03/02 06:31:40;;;;;;;0.50;0.10;;;3.90;99.90;;;;;;4937876;29;20494;-73
2022/03/02 06:34:09;;;;;;;11.13;10.40;;;3.90;99.90;;;;;;4937853;29;20450;-73
2022/03/02 06:36:37;;;;;;;0.50;0.10;;;3.90;99.90;;;;;;4936794;29;20486;-74
2022/03/02 06:39:05;;;;;;;0.50;0.10;;;4.00;99.90;;;;;;4935902;29;20453;-73
2022/03/02 06:41:48;;;;;;;0.50;0.10;;;3.90;99.90;;;;;;4934170;29;20460;-75
2022/03/02 06:44:26;;;;;;;0.50;0.10;;;3.90;99.90;;;;;;4932003;29;20445;-73
2022/03/02 06:47:02;;;;;;;0.50;0.10;;;3.90;99.90;;;;;;4935083;29;20486;-73
2022/03/02 06:49:50;;;;;;;0.50;0.10;;;3.90;99.90;;;;;;4916972;29;20561;-73
2022/03/02 06:52:22;;;;;;;0.50;0.10;;;3.90;99.90;;;;;;4937138;29;20501;-72
2022/03/02 06:54:51;;;;;;;0.50;0.10;;;3.90;99.90;;;;;;4929599;29;20458;-73
2022/03/02 06:57:28;;;;;;;0.50;0.10;;;3.80;99.90;;;;;;4927723;29;20494;-74
2022/03/02 07:00:14;;;;;;;0.83;0.83;;;;;;;;;;4941464;29;20455;-74
2022/03/02 07:02:46;;;;;;;0.50;0.10;;;;;;;;;;4943721;29;20478;-74
2022/03/02 07:05:32;;;;;;;0.50;0.10;;;3.90;99.90;;;;;;4939631;29;20970;-73
2022/03/02 07:08:08;;;;;;;0.50;0.10;;;;;;;;;;4940459;29;20444;-74
2022/03/02 07:10:42;;;;;;;1.40;1.30;;;;;;;;;;4942162;29;20457;-73
2022/03/02 07:13:22;;;;;;;0.50;0.10;;;;;;;;;;4943591;29;20486;-74
2022/03/02 07:15:59;;;;;;;0.50;0.10;;;;;;;;;;4942959;29;20468;-73
2022/03/02 07:18:29;;;;;;;0.50;0.10;;;;;;;;;;4932863;29;20582;-74
2022/03/02 07:20:58;;;;;;;0.50;0.10;;;4.10;99.90;;;;;;4943222;29;20541;-74
2022/03/02 07:23:37;;;;;;;2.40;2.30;;;4.10;99.90;;;;;;4946290;29;20484;-74
2022/03/02 07:26:29;;;;;;;0.50;0.10;;;4.20;99.90;;;;;;4941008;29;20480;-74
2022/03/02 07:29:02;;;;;;;0.50;0.10;;;4.10;99.90;;;;;;4942797;29;20445;-74
2022/03/02 07:31:37;;;;;;;0.50;0.10;;;4.10;99.90;;;;;;4944841;29;20524;-74
2022/03/02 07:34:28;;;;;;;0.50;0.10;;;;;;;;;;4940369;29;20460;-74
2022/03/02 07:37:02;;;;;;;0.50;0.10;;;;;;;;;;4940690;29;20957;-75
2022/03/02 07:39:45;;;;;;;0.50;0.10;;;4.20;99.90;;;;;;4924955;29;20451;-74
2022/03/02 07:42:17;;;;;;;0.50;0.10;;;;;;;;;;4924908;29;20465;-76
2022/03/02 07:44:48;;;;;;;0.50;0.10;;;;;;;;;;4922554;29;20490;-74
2022/03/02 07:47:19;;;;;;;0.50;0.10;;;4.40;99.90;;;;;;4920921;29;20458;-75
2022/03/02 07:49:49;;;;;;;0.50;0.10;;;4.40;99.90;;;;;;4920182;29;20489;-73
2022/03/02 07:52:45;;;;;;;0.50;0.10;;;4.50;99.90;;;;;;4918623;29;20926;-73
2022/03/02 07:55:18;;;;;;;0.50;0.10;;;4.50;99.90;;;;;;4919206;29;20823;-74
2022/03/02 07:58:04;;;;;;;0.50;0.10;;;4.50;99.90;;;;;;4928053;29;20487;-74
2022/03/02 08:00:35;;;;;;;0.50;0.10;;;3.60;99.90;;;;;;4942280;29;20487;-74
2022/03/02 08:03:05;;;;;;;0.53;0.27;;;4.60;99.90;;;;;;4948933;29;20538;-73
2022/03/02 08:05:34;;;;;;;0.50;0.20;;;4.70;99.90;;;;;;4957402;29;20461;-73
2022/03/02 08:08:03;;;;;;;0.50;0.10;;;4.70;99.90;;;;;;4945553;29;20458;-74
2022/03/02 08:10:31;;;;;;;0.50;0.10;;;4.80;99.90;;;;;;4937695;29;20450;-73
2022/03/02 08:12:59;;;;;;;0.50;0.20;;;4.90;99.90;;;;;;4941166;29;20562;-74
2022/03/02 08:15:28;;;;;;;0.50;0.10;;;4.90;99.90;;;;;;4939989;29;20449;-72
2022/03/02 08:17:59;;;;;;;0.57;0.27;;;5.10;99.90;;;;;;4946207;29;20478;-74
2022/03/02 08:20:50;;;;;;;0.50;0.10;;;5.10;99.90;;;;;;4945498;29;20492;-73
2022/03/02 08:23:20;;;;;;;0.50;0.10;;;5.10;99.90;;;;;;4941989;29;20467;-74
2022/03/02 08:25:51;;;;;;;0.60;0.53;;;5.10;99.90;;;;;;4958226;29;20823;-74
2022/03/02 08:28:19;;;;;;;0.50;0.10;;;5.10;99.90;;;;;;4943727;29;20449;-73
2022/03/02 08:30:50;;;;;;;0.60;0.20;;;5.10;99.90;;;;;;4938198;29;20817;-73
2022/03/02 08:33:20;;;;;;;0.50;0.10;;;5.10;99.90;;;;;;4938215;29;20469;-74
2022/03/02 08:35:51;;;;;;;0.50;0.10;;;5.10;99.90;;;;;;4932128;29;20446;-74
2022/03/02 08:38:20;;;;;;;0.60;0.10;;;5.10;99.90;;;;;;4938228;29;20487;-73
2022/03/02 08:40:48;;;;;;;0.50;0.10;;;5.20;99.90;;;;;;4938035;29;20481;-74
2022/03/02 08:43:17;;;;;;;0.50;0.10;;;5.30;99.90;;;;;;4937970;29;20458;-73
2022/03/02 08:45:47;;;;;;;0.50;0.10;;;5.30;99.90;;;;;;4936984;29;20481;-73
2022/03/02 08:48:16;;;;;;;0.50;0.10;;;5.40;99.90;;;;;;4932634;29;20544;-73
2022/03/02 08:50:45;;;;;;;0.50;0.10;;;5.40;99.90;;;;;;4949301;29;20471;-73
2022/03/02 08:53:15;;;;;;;0.50;0.10;;;5.50;99.90;;;;;;4948302;29;20984;-74
2022/03/02 08:55:45;;;;;;;0.80;0.53;;;5.50;99.90;;;;;;4934220;29;20475;-74
2022/03/02 08:58:15;;;;;;;0.50;0.30;;;5.50;99.90;;;;;;4942325;29;21054;-74
2022/03/02 09:00:43;;;;;;;3.90;2.00;;;5.60;99.90;;;;;;4947886;29;20603;-74
2022/03/02 09:03:15;;;;;;;5.17;3.40;;;5.50;99.90;;;;;;4936353;29;20487;-73
2022/03/02 09:05:45;;;;;;;0.50;0.30;;;5.50;99.90;;;;;;4941517;29;20794;-73
2022/03/02 09:08:13;;;;;;;1.23;1.13;;;5.40;99.90;;;;;;4927278;29;20513;-72
2022/03/02 09:10:42;;;;;;;0.50;0.10;;;5.30;99.90;;;;;;4918088;29;20457;-74
2022/03/02 09:13:12;;;;;;;0.57;0.30;;;5.10;99.90;;;;;;4917035;29;20572;-74
2022/03/02 09:15:41;;;;;;;0.90;0.73;;;5.10;99.90;;;;;;4950625;29;20445;-74
2022/03/02 09:18:10;;;;;;;2.13;1.03;;;5.10;99.90;;;;;;4956038;29;20472;-73
2022/03/02 09:20:41;;;;;;;0.50;0.23;;;5.10;99.90;;;;;;4955639;29;20476;-73
2022/03/02 09:23:10;;;;;;;0.70;0.57;;;5.10;99.90;;;;;;4963504;29;20506;-73
2022/03/02 09:25:40;;;;;;;2.50;1.63;;;;;;;;;;4960433;29;20546;-73
2022/03/02 09:28:11;;;;;;;0.50;0.10;;;5.20;99.90;;;;;;4953221;28;20561;-73
2022/03/02 09:30:40;;;;;;;1.00;1.00;;;5.20;99.90;;;;;;4939007;29;20470;-74
2022/03/02 09:33:15;;;;;;;3.97;2.17;;;5.20;99.90;;;;;;4932017;29;20490;-75
2022/03/02 09:35:45;;;;;;;0.50;0.10;;;5.30;99.90;;;;;;4943208;29;20536;-73
2022/03/02 09:38:13;;;;;;;0.50;0.20;;;5.30;99.90;;;;;;4938272;29;20482;-74
2022/03/02 09:40:44;;;;;;;0.70;0.70;;;5.30;99.90;;;;;;4935655;29;20484;-76
2022/03/02 09:43:19;;;;;;;0.50;0.10;;;5.40;99.90;;;;;;4937166;29;20489;-75
2022/03/02 09:45:50;;;;;;;0.50;0.10;;;5.40;99.90;;;;;;4943000;29;20488;-75
2022/03/02 09:48:29;;;;;;;2.10;2.00;;;5.50;99.90;;;;;;4919735;29;20459;-75
2022/03/02 09:51:00;;;;;;;0.50;0.10;;;5.70;99.90;;;;;;4917277;29;20469;-76
2022/03/02 09:53:29;;;;;;;0.50;0.10;;;5.70;99.90;;;;;;4919751;29;20475;-73
2022/03/02 09:56:01;;;;;;;0.50;0.10;;;5.80;99.90;;;;;;4924857;29;20464;-73
2022/03/02 09:58:31;;;;;;;0.60;0.20;;;5.90;99.90;;;;;;4935279;29;20485;-73
2022/03/02 10:01:00;;;;;;;0.50;0.10;;;6.00;99.90;;;;;;4936341;29;20455;-73
2022/03/02 10:03:37;;;;;;;0.60;0.30;;;6.00;99.90;;;;;;4902734;29;1086251;-73
2022/03/02 10:06:06;;;;;;;0.53;0.10;;;6.10;99.90;;;;;;4936311;29;20458;-74
2022/03/02 10:08:39;;;;;;;0.50;0.10;;;6.10;99.90;;;;;;4920020;29;20451;-74
2022/03/02 10:11:08;;;;;;;1.20;0.87;;;6.10;99.90;;;;;;4920707;29;20478;-74
2022/03/02 10:13:37;;;;;;;1.23;1.13;;;6.10;99.90;;;;;;4934839;29;20484;-74
2022/03/02 10:16:06;;;;;;;1.00;0.93;;;6.00;99.90;;;;;;4949587;29;20453;-73
2022/03/02 10:18:36;;;;;;;2.73;2.53;;;6.10;99.90;;;;;;4950589;29;21033;-74
2022/03/02 10:21:05;;;;;;;0.50;0.10;;;6.10;99.90;;;;;;4943543;29;20478;-74
2022/03/02 10:23:36;;;;;;;0.73;0.50;;;6.10;99.90;;;;;;4939501;29;20478;-74
2022/03/02 10:26:12;;;;;;;0.50;0.10;;;6.10;99.90;;;;;;4942068;29;20455;-74
2022/03/02 10:28:53;;;;;;;0.50;0.10;;;6.10;99.90;;;;;;4926037;29;20517;-74
2022/03/02 10:31:42;;;;;;;0.73;0.30;;;6.20;99.90;;;;;;4944643;29;20444;-73
2022/03/02 10:34:29;;;;;;;0.70;0.60;;;6.20;99.90;;;;;;4961470;29;20442;-74
2022/03/02 10:37:18;;;;;;;0.60;0.10;;;6.20;99.90;;;;;;4951591;29;20449;-73
2022/03/02 10:39:53;;;;;;;0.50;0.10;;;6.20;99.90;;;;;;4947420;29;20864;-74
2022/03/02 10:42:24;;;;;;;0.50;0.10;;;6.20;99.90;;;;;;4946434;29;20549;-75
2022/03/02 10:45:08;;;;;;;0.50;0.10;;;6.30;99.90;;;;;;4944498;29;20560;-75
2022/03/02 10:47:41;;;;;;;0.50;0.10;;;6.30;99.90;;;;;;4943337;29;20553;-73
2022/03/02 10:50:10;;;;;;;0.50;0.10;;;6.40;99.90;;;;;;4950044;29;20518;-74
2022/03/02 10:52:41;;;;;;;0.50;0.10;;;6.40;99.90;;;;;;4944787;29;20491;-74
2022/03/02 10:55:12;;;;;;;6.10;2.40;;;6.30;99.90;;;;;;4944741;29;20454;-74
2022/03/02 10:57:41;;;;;;;0.50;0.10;;;6.40;99.90;;;;;;4931156;29;20548;-73
2022/03/02 11:00:14;;;;;;;0.60;0.10;;;6.30;99.90;;;;;;4926097;29;20486;-74
2022/03/02 11:02:43;;;;;;;0.50;0.10;;;6.40;99.90;;;;;;4922128;29;20479;-74
2022/03/02 11:05:14;;;;;;;2.53;0.97;;;6.40;99.90;;;;;;4920513;29;20708;-73
2022/03/02 11:07:46;;;;;;;0.50;0.10;;;6.40;99.90;;;;;;4936064;29;20510;-73
2022/03/02 11:10:16;;;;;;;0.50;0.10;;;6.40;99.90;;;;;;4941118;29;20560;-74
2022/03/02 11:12:45;;;;;;;0.50;0.10;;;6.40;99.90;;;;;;4939675;29;20486;-74
2022/03/02 11:15:17;;;;;;;0.50;0.10;;;6.40;99.90;;;;;;4957974;29;20645;-73
2022/03/02 11:17:56;;;;;;;0.60;0.10;;;6.50;99.90;;;;;;4943107;29;20542;-75
2022/03/02 11:20:29;;;;;;;0.87;0.50;;;6.70;99.90;;;;;;4939052;29;20498;-74
2022/03/02 11:22:59;;;;;;;1.63;1.40;;;7.00;99.90;;;;;;4941060;29;20514;-75
2022/03/02 11:25:47;;;;;;;0.60;0.20;;;7.10;99.90;;;;;;4948517;29;20505;-73
2022/03/02 11:28:18;;;;;;;0.60;0.10;;;7.20;99.90;;;;;;4940020;29;20448;-74
2022/03/02 11:30:52;;;;;;;0.50;0.10;;;7.40;99.90;;;;;;4940246;29;20450;-73
2022/03/02 11:33:26;;;;;;;0.57;0.10;;;7.50;99.90;;;;;;4944118;29;20485;-73
2022/03/02 11:35:59;;;;;;;0.60;0.10;;;7.60;99.90;;;;;;4957631;29;20468;-74
2022/03/02 11:38:31;;;;;;;0.50;0.10;;;7.70;99.90;;;;;;4964369;29;20818;-74
2022/03/02 11:41:01;;;;;;;0.60;0.10;;;7.70;99.90;;;;;;4960432;29;20493;-74
2022/03/02 11:43:31;;;;;;;0.60;0.10;;;7.70;99.90;;;;;;4961040;29;20476;-75
2022/03/02 11:46:03;;;;;;;0.60;0.10;;;7.80;99.90;;;;;;4953030;29;20454;-74
2022/03/02 11:48:34;;;;;;;0.60;0.40;;;7.80;99.90;;;;;;4945431;29;20993;-74
2022/03/02 11:51:08;;;;;;;0.60;0.10;;;7.90;99.90;;;;;;4955210;29;20488;-74
2022/03/02 11:53:38;;;;;;;0.60;0.10;;;8.00;99.90;;;;;;4944978;29;21043;-74
2022/03/02 11:56:08;;;;;;;3.43;2.93;;;8.10;99.90;;;;;;4943551;29;20486;-74
2022/03/02 11:59:02;;;;;;;0.60;0.10;;;8.20;99.90;;;;;;4945955;29;20549;-74
2022/03/02 12:01:50;;;;;;;1.03;1.03;;;8.40;99.90;;;;;;4939460;29;20464;-73
2022/03/02 12:04:29;;;;;;;0.60;0.20;;;8.40;99.90;;;;;;4943059;29;20528;-73
2022/03/02 12:06:57;;;;;;;0.80;0.53;;;8.50;99.90;;;;;;4946683;29;20463;-75
2022/03/02 12:09:27;;;;;;;0.60;0.10;;;8.50;99.90;;;;;;4946674;29;20462;-74
2022/03/02 12:12:08;;;;;;;1.23;0.90;;;8.60;99.90;;;;;;4959038;29;20568;-73
2022/03/02 12:14:52;;;;;;;0.60;0.10;;;8.50;99.90;;;;;;4926905;29;20541;-74
2022/03/02 12:17:24;;;;;;;0.60;0.10;;;8.60;99.90;;;;;;4918830;29;20453;-75
2022/03/02 12:19:54;;;;;;;0.60;0.10;;;8.60;99.90;;;;;;4918181;29;20505;-74
2022/03/02 12:22:23;;;;;;;0.60;0.10;;;8.50;99.90;;;;;;4919008;29;20984;-73
2022/03/02 12:24:51;;;;;;;0.60;0.10;;;8.60;99.90;;;;;;4935795;29;21008;-76
2022/03/02 12:27:20;;;;;;;0.60;0.20;;;8.70;99.90;;;;;;4938125;29;20458;-74
2022/03/02 12:29:55;;;;;;;0.60;0.10;;;8.70;99.90;;;;;;4942950;29;20458;-74
2022/03/02 12:32:29;;;;;;;0.97;0.97;;;8.90;99.90;;;;;;4940322;29;20554;-73
2022/03/02 12:34:58;;;;;;;0.60;0.10;;;9.00;99.90;;;;;;4936773;29;20458;-74
2022/03/02 12:37:28;;;;;;;0.60;0.10;;;9.10;99.90;;;;;;4936970;29;20467;-73
2022/03/02 12:39:56;;;;;;;1.57;1.40;;;9.10;99.90;;;;;;4937694;29;20494;-74
2022/03/02 12:42:24;;;;;;;0.60;0.10;;;9.20;99.90;;;;;;4940731;29;20565;-74
2022/03/02 12:44:54;;;;;;;0.60;0.10;;;9.20;99.90;;;;;;4931832;29;20951;-74
2022/03/02 12:47:26;;;;;;;0.97;0.73;;;9.20;99.90;;;;;;4947951;29;20448;-76
2022/03/02 12:49:57;;;;;;;0.60;0.10;;;9.20;99.90;;;;;;4944668;29;20519;-74
2022/03/02 12:52:27;;;;;;;0.60;0.10;;;9.40;99.90;;;;;;4940674;29;20996;-73
2022/03/02 12:54:57;;;;;;;2.90;1.47;;;9.40;99.90;;;;;;4936349;29;20469;-74
2022/03/02 12:57:27;;;;;;;0.60;0.10;;;9.50;99.90;;;;;;4937366;29;20979;-74
2022/03/02 12:59:56;;;;;;;0.60;0.10;;;9.50;99.90;;;;;;4938955;29;20990;-74
2022/03/02 13:02:30;;;;;;;0.60;0.10;;;9.70;99.90;;;;;;4933683;29;20487;-74
2022/03/02 13:05:06;;;;;;;0.60;0.10;;;9.60;99.90;;;;;;4936256;29;20451;-74
2022/03/02 13:07:41;;;;;;;1.67;1.57;;;9.70;99.90;;;;;;4936348;29;20494;-73
2022/03/02 13:10:11;;;;;;;0.60;0.10;;;9.80;99.90;;;;;;4937388;29;20771;-74
2022/03/02 13:12:41;;;;;;;0.60;0.20;;;10.10;99.90;;;;;;4917694;29;20987;-74
2022/03/02 13:15:33;;;;;;;0.60;0.10;;;10.10;99.90;;;;;;4941954;29;20439;-73
2022/03/02 13:18:18;;;;;;;0.60;0.10;;;10.20;99.90;;;;;;4937326;29;20815;-74
2022/03/02 13:20:49;;;;;;;0.60;0.10;;;10.20;99.90;;;;;;4939785;29;20569;-74
2022/03/02 13:23:20;;;;;;;0.60;0.10;;;10.20;99.90;;;;;;4940537;29;20494;-73
2022/03/02 13:26:14;;;;;;;0.60;0.10;;;10.20;99.90;;;;;;4939180;29;20433;-73
2022/03/02 13:29:05;;;;;;;0.83;0.83;;;10.10;99.90;;;;;;4938707;29;20467;-73
2022/03/02 13:31:52;;;;;;;0.60;0.10;;;10.20;99.90;;;;;;4957230;29;20802;-74
2022/03/02 13:34:22;;;;;;;0.60;0.10;;;10.20;99.90;;;;;;4921478;29;20425;-74